Time;durP1;ratioP1;P1;durP2;ratioP2;P2;SDS_P1;SDS_P2;PMS_P1;PMS_P2;Temp;Humidity;BMP_temperature;BMP_pressure;BME280_temperature;BME280_humidity;BME280_pressure;Samples;Min_cycle;Max_cycle;Signal;HPM_P1;HPM_P2
2023/01/24 00:00:54;;;;;;;10.63;1.47;;;25.40;65.60;;;;;;5054530;28;20184;-69
2023/01/24 00:03:22;;;;;;;7.57;2.20;;;25.30;65.60;;;;;;5053678;28;20281;-70
2023/01/24 00:05:50;;;;;;;7.70;1.40;;;25.60;65.70;;;;;;5054350;28;20603;-71
2023/01/24 00:08:19;;;;;;;8.50;1.33;;;25.60;65.50;;;;;;5054098;28;20881;-72
2023/01/24 00:10:47;;;;;;;6.43;1.60;;;25.70;65.50;;;;;;5053785;28;20184;-71
2023/01/24 00:13:15;;;;;;;10.63;1.50;;;25.80;65.80;;;;;;5053700;28;20184;-71
2023/01/24 00:15:43;;;;;;;6.23;1.50;;;25.80;65.70;;;;;;5054057;28;20195;-71
2023/01/24 00:18:10;;;;;;;8.07;1.93;;;26.00;65.60;;;;;;5053467;28;20739;-69
2023/01/24 00:20:38;;;;;;;4.83;1.27;;;26.10;65.30;;;;;;5051996;28;20214;-70
2023/01/24 00:23:05;;;;;;;6.60;1.53;;;26.10;64.70;;;;;;5053661;28;20183;-71
2023/01/24 00:25:32;;;;;;;5.97;1.50;;;25.90;65.10;;;;;;5053376;28;20217;-69
2023/01/24 00:28:00;;;;;;;6.83;1.30;;;26.30;65.60;;;;;;5053903;28;20184;-69
2023/01/24 00:30:27;;;;;;;7.90;1.63;;;26.80;63.50;;;;;;5048237;28;20180;-67
2023/01/24 00:32:54;;;;;;;5.87;1.23;;;27.00;62.50;;;;;;5052043;28;20670;-68
2023/01/24 00:35:21;;;;;;;4.93;1.43;;;26.70;62.90;;;;;;5052054;28;20188;-68
2023/01/24 00:37:49;;;;;;;8.60;1.37;;;26.70;62.60;;;;;;5050558;28;20203;-68
2023/01/24 00:40:16;;;;;;;5.03;1.20;;;26.80;62.60;;;;;;5052283;28;20190;-69
2023/01/24 00:42:44;;;;;;;7.63;1.37;;;26.90;62.50;;;;;;5051884;28;20278;-69
2023/01/24 00:45:11;;;;;;;5.33;1.43;;;26.90;62.60;;;;;;5046867;28;20222;-69
2023/01/24 00:47:38;;;;;;;6.17;1.50;;;26.80;63.00;;;;;;5050225;28;20237;-69
2023/01/24 00:50:06;;;;;;;10.07;1.40;;;27.20;62.40;;;;;;5052259;28;20708;-69
2023/01/24 00:52:33;;;;;;;6.30;1.63;;;27.40;61.00;;;;;;5052864;28;20255;-68
2023/01/24 00:55:01;;;;;;;8.77;1.67;;;27.60;60.50;;;;;;5051656;28;20184;-70
2023/01/24 00:57:28;;;;;;;7.87;1.13;;;27.50;60.90;;;;;;5051277;28;20183;-69
2023/01/24 00:59:55;;;;;;;4.67;1.23;;;27.30;61.20;;;;;;5048218;28;20179;-71
2023/01/24 01:02:22;;;;;;;4.13;1.20;;;27.50;61.40;;;;;;5050269;28;20172;-71
2023/01/24 01:04:50;;;;;;;5.57;1.40;;;27.60;60.70;;;;;;5050704;28;20257;-72
2023/01/24 01:07:20;;;;;;;6.53;1.20;;;27.60;60.40;;;;;;5048493;28;20668;-70
2023/01/24 01:09:47;;;;;;;5.30;1.60;;;27.80;60.70;;;;;;5051295;28;20565;-70
2023/01/24 01:12:15;;;;;;;3.80;1.33;;;27.90;60.70;;;;;;5051302;28;20188;-71
2023/01/24 01:14:42;;;;;;;7.30;1.70;;;27.70;60.30;;;;;;5052307;28;20650;-70
2023/01/24 01:17:09;;;;;;;7.10;2.03;;;27.90;59.80;;;;;;5051298;28;20187;-72
2023/01/24 01:19:37;;;;;;;6.40;1.50;;;28.00;60.50;;;;;;5050844;28;20194;-68
2023/01/24 01:22:04;;;;;;;6.83;1.63;;;27.90;60.80;;;;;;5051209;28;20226;-71
2023/01/24 01:24:31;;;;;;;6.13;1.50;;;27.90;59.70;;;;;;5051599;28;20659;-70
2023/01/24 01:26:59;;;;;;;4.60;1.50;;;27.90;60.60;;;;;;5049679;28;20593;-68
2023/01/24 01:29:27;;;;;;;10.80;1.57;;;27.90;61.00;;;;;;5051380;28;20713;-70
2023/01/24 01:31:54;;;;;;;7.30;1.80;;;28.30;60.10;;;;;;5051013;28;20187;-69
2023/01/24 01:34:21;;;;;;;6.93;1.73;;;28.20;59.60;;;;;;5052106;28;20211;-70
2023/01/24 01:36:49;;;;;;;7.03;1.80;;;28.40;59.40;;;;;;5050291;28;20187;-69
2023/01/24 01:39:16;;;;;;;5.87;1.50;;;28.60;58.60;;;;;;5049925;28;20650;-69
2023/01/24 01:41:43;;;;;;;5.00;1.77;;;28.60;58.20;;;;;;5051318;28;20187;-71
2023/01/24 01:44:38;;;;;;;6.27;1.47;;;28.70;58.50;;;;;;5051624;28;20216;-70
2023/01/24 01:47:28;;;;;;;5.17;1.63;;;28.80;57.80;;;;;;5051345;28;20640;-71
2023/01/24 01:50:25;;;;;;;6.57;1.50;;;29.10;57.60;;;;;;5051052;28;20625;-72
2023/01/24 01:52:53;;;;;;;6.77;1.90;;;29.20;56.60;;;;;;5043590;28;20309;-70
2023/01/24 01:55:24;;;;;;;7.37;1.87;;;28.90;57.60;;;;;;5050852;28;20275;-69
2023/01/24 01:57:53;;;;;;;7.90;2.00;;;29.00;57.60;;;;;;5047254;28;20172;-70
2023/01/24 02:00:26;;;;;;;6.37;1.87;;;28.90;57.10;;;;;;5050034;28;20334;-70
2023/01/24 02:05:58;;;;;;;3.30;1.43;;;28.60;58.70;;;;;;5051100;28;20249;-68
2023/01/24 02:08:27;;;;;;;8.60;1.60;;;29.00;57.90;;;;;;5050876;28;20710;-67
2023/01/24 02:13:45;;;;;;;9.13;2.37;;;28.90;57.60;;;;;;5050450;28;20293;-71
2023/01/24 02:16:14;;;;;;;5.77;1.70;;;29.10;57.50;;;;;;5049830;28;20168;-71
2023/01/24 02:18:44;;;;;;;7.80;1.60;;;29.60;56.10;;;;;;5048507;28;20182;-69
2023/01/24 02:21:17;;;;;;;3.87;1.40;;;29.60;55.50;;;;;;5048687;28;20229;-71
2023/01/24 02:24:04;;;;;;;6.53;1.50;;;29.40;55.90;;;;;;5051014;28;20719;-70
2023/01/24 02:26:31;;;;;;;4.97;1.33;;;29.70;55.80;;;;;;5052859;28;20705;-71
2023/01/24 02:29:12;;;;;;;6.57;1.97;;;29.90;54.80;;;;;;5047878;28;20184;-70
2023/01/24 02:31:56;;;;;;;5.40;1.50;;;30.00;54.40;;;;;;5047036;28;20188;-71
2023/01/24 02:34:24;;;;;;;4.93;1.73;;;30.20;54.10;;;;;;5051083;28;20543;-71
2023/01/24 02:37:00;;;;;;;4.70;1.50;;;30.30;54.10;;;;;;5050698;28;20301;-71
2023/01/24 02:39:33;;;;;;;4.10;1.43;;;29.90;54.70;;;;;;5049522;28;20183;-71
2023/01/24 02:42:10;;;;;;;5.80;1.77;;;30.00;54.40;;;;;;5050506;28;20212;-71
2023/01/24 02:45:06;;;;;;;4.90;1.57;;;29.60;55.20;;;;;;5044623;28;20195;-70
2023/01/24 02:47:38;;;;;;;11.43;1.83;;;29.80;54.30;;;;;;5038888;28;20192;-70
2023/01/24 02:50:08;;;;;;;5.97;1.87;;;29.30;55.70;;;;;;5048798;28;20264;-69
2023/01/24 02:55:21;;;;;;;5.67;1.80;;;29.80;54.50;;;;;;5046381;28;20206;-71
2023/01/24 02:58:06;;;;;;;14.03;2.97;;;30.00;54.50;;;;;;5044808;28;20202;-70
2023/01/24 03:00:39;;;;;;;10.50;2.03;;;29.80;55.30;;;;;;5053068;28;20179;-74
2023/01/24 03:03:08;;;;;;;5.27;1.50;;;29.80;54.80;;;;;;5050753;28;20543;-71
2023/01/24 03:08:21;;;;;;;3.47;1.40;;;30.00;54.40;;;;;;5050242;28;20208;-71
2023/01/24 03:10:49;;;;;;;8.03;1.70;;;29.00;56.70;;;;;;5050609;28;20545;-71
2023/01/24 03:35:24;;;;;;;4.90;1.90;;;30.50;53.80;;;;;;5053542;28;20218;-71
2023/01/24 03:40:37;;;;;;;4.57;2.22;;;30.60;52.70;;;;;;5053889;28;20684;-71
2023/01/24 03:43:05;;;;;;;7.03;2.58;;;30.50;52.10;;;;;;5053120;28;20187;-74
2023/01/24 03:45:35;;;;;;;4.18;2.40;;;29.40;54.10;;;;;;5052959;28;20208;-74
2023/01/24 03:48:14;;;;;;;8.63;2.90;;;29.80;55.00;;;;;;5055040;28;20183;-73
2023/01/24 03:53:31;;;;;;;3.65;1.90;;;29.90;53.60;;;;;;5048085;28;20241;-73
2023/01/24 03:56:00;;;;;;;5.47;2.22;;;29.90;53.50;;;;;;5052759;28;20191;-70
2023/01/24 03:58:29;;;;;;;3.57;2.07;;;30.00;54.00;;;;;;5044485;28;20194;-71
2023/01/24 04:00:57;;;;;;;4.13;2.40;;;29.70;54.80;;;;;;5056544;28;20696;-70
2023/01/24 04:03:27;;;;;;;6.27;2.23;;;29.70;55.40;;;;;;5052138;28;20291;-73
2023/01/24 04:05:54;;;;;;;3.63;1.97;;;29.90;54.50;;;;;;5052997;28;20220;-72
2023/01/24 04:08:22;;;;;;;5.33;2.00;;;29.80;54.60;;;;;;5049318;28;20198;-72
2023/01/24 04:10:49;;;;;;;5.03;1.77;;;29.70;54.70;;;;;;5052384;28;20251;-70
2023/01/24 04:13:16;;;;;;;5.20;2.10;;;29.70;55.20;;;;;;5050524;28;20606;-69
2023/01/24 04:15:45;;;;;;;3.15;1.75;;;29.80;55.60;;;;;;5053097;28;20287;-70
2023/01/24 04:18:13;;;;;;;4.17;1.90;;;30.00;54.90;;;;;;5053454;28;20234;-73
2023/01/24 04:20:40;;;;;;;7.35;2.00;;;30.30;54.50;;;;;;5052623;28;20281;-68
2023/01/24 04:23:08;;;;;;;4.10;2.23;;;29.80;55.50;;;;;;5052651;28;20184;-70
2023/01/24 04:25:36;;;;;;;5.43;1.83;;;30.20;55.70;;;;;;5051682;28;20269;-73
2023/01/24 04:28:03;;;;;;;6.20;2.03;;;30.20;54.60;;;;;;5052471;28;20258;-70
2023/01/24 04:30:30;;;;;;;6.65;2.00;;;29.80;55.40;;;;;;5051184;28;20270;-72
2023/01/24 04:32:58;;;;;;;5.50;2.13;;;29.50;56.40;;;;;;5053149;28;20266;-69
2023/01/24 04:35:28;;;;;;;7.22;2.60;;;29.90;55.90;;;;;;5051823;28;20187;-68
2023/01/24 04:37:59;;;;;;;7.60;2.07;;;29.90;55.00;;;;;;5053393;28;20568;-69
2023/01/24 04:40:26;;;;;;;5.60;2.22;;;30.60;54.30;;;;;;5052882;28;20233;-70
2023/01/24 04:42:56;;;;;;;4.60;2.45;;;30.70;53.20;;;;;;5052454;28;20211;-70
2023/01/24 04:45:24;;;;;;;7.55;2.63;;;30.70;52.90;;;;;;5051832;28;20211;-71
2023/01/24 04:47:53;;;;;;;6.28;2.58;;;31.40;52.30;;;;;;5047936;28;20241;-73
2023/01/24 04:50:20;;;;;;;5.53;2.17;;;31.70;51.00;;;;;;5051783;28;20266;-72
2023/01/24 04:52:47;;;;;;;4.45;1.83;;;31.60;51.20;;;;;;5053219;28;20266;-71
2023/01/24 04:55:15;;;;;;;4.75;2.17;;;30.70;53.60;;;;;;5052100;28;20180;-70
2023/01/24 04:57:43;;;;;;;4.95;2.03;;;30.40;54.70;;;;;;5051742;28;20655;-70
2023/01/24 05:00:10;;;;;;;6.55;2.00;;;30.60;54.20;;;;;;5051374;28;20603;-71
2023/01/24 05:02:38;;;;;;;3.38;1.80;;;30.80;53.00;;;;;;5054785;28;20232;-71
2023/01/24 05:05:08;;;;;;;7.47;2.38;;;31.20;52.20;;;;;;5047585;28;20317;-68
2023/01/24 05:07:36;;;;;;;4.47;2.08;;;30.80;53.50;;;;;;5052435;28;20692;-70
2023/01/24 05:10:03;;;;;;;5.53;2.67;;;30.60;53.20;;;;;;5052275;28;20182;-71
2023/01/24 05:12:30;;;;;;;4.00;2.13;;;29.90;54.50;;;;;;5049027;28;20188;-73
2023/01/24 05:14:58;;;;;;;3.50;2.17;;;29.60;55.50;;;;;;5052177;28;20195;-71
2023/01/24 05:17:25;;;;;;;4.53;2.28;;;29.80;55.60;;;;;;5051932;28;20218;-73
2023/01/24 05:19:52;;;;;;;4.20;1.70;;;30.60;53.50;;;;;;5052646;28;20219;-71
2023/01/24 05:22:20;;;;;;;6.53;2.28;;;31.10;52.50;;;;;;5052031;28;20180;-72
2023/01/24 05:24:47;;;;;;;5.65;2.00;;;31.40;51.60;;;;;;5051993;28;20176;-71
2023/01/24 05:27:14;;;;;;;5.82;1.95;;;30.90;52.20;;;;;;5051244;28;20199;-70
2023/01/24 05:29:42;;;;;;;4.30;2.00;;;30.90;52.10;;;;;;5048402;28;20176;-71
2023/01/24 05:32:09;;;;;;;4.88;1.70;;;30.80;52.00;;;;;;5052691;28;20207;-70
2023/01/24 05:34:37;;;;;;;4.97;1.70;;;30.70;52.50;;;;;;5049324;28;20512;-68
2023/01/24 05:37:04;;;;;;;2.88;1.90;;;30.90;52.10;;;;;;5047705;28;20267;-71
2023/01/24 05:39:31;;;;;;;6.63;2.00;;;30.30;53.80;;;;;;5051582;28;20317;-69
2023/01/24 05:41:59;;;;;;;5.35;1.98;;;30.80;52.30;;;;;;5051471;28;20279;-68
2023/01/24 05:44:26;;;;;;;3.90;1.83;;;31.20;51.90;;;;;;5051728;28;20208;-68
2023/01/24 05:46:53;;;;;;;3.45;1.60;;;31.40;50.70;;;;;;5052017;28;20747;-68
2023/01/24 05:49:21;;;;;;;2.70;1.92;;;31.10;51.10;;;;;;5051574;28;20188;-69
2023/01/24 05:51:48;;;;;;;5.32;1.83;;;31.40;49.50;;;;;;5051197;28;20269;-70
2023/01/24 05:54:15;;;;;;;6.20;1.95;;;31.50;49.80;;;;;;5048232;28;20183;-69
2023/01/24 05:56:43;;;;;;;5.07;1.83;;;31.50;50.60;;;;;;5051220;28;20184;-73
2023/01/24 05:59:10;;;;;;;3.40;1.65;;;30.70;51.40;;;;;;5050970;28;20222;-70
2023/01/24 06:01:37;;;;;;;4.40;2.05;;;30.90;51.20;;;;;;5051130;28;20187;-70
2023/01/24 06:04:05;;;;;;;3.50;2.60;;;30.80;52.30;;;;;;5048777;28;20187;-68
2023/01/24 06:06:32;;;;;;;6.95;3.08;;;30.90;51.90;;;;;;5051690;28;20282;-67
2023/01/24 06:08:59;;;;;;;6.20;2.63;;;30.70;53.20;;;;;;5051135;28;20184;-68
2023/01/24 06:11:28;;;;;;;5.40;2.10;;;31.70;50.80;;;;;;5051251;28;20547;-72
2023/01/24 06:13:56;;;;;;;2.50;1.77;;;31.70;50.90;;;;;;5051203;28;20266;-69
2023/01/24 06:16:25;;;;;;;4.65;1.77;;;31.30;52.10;;;;;;5050412;28;20203;-69
2023/01/24 06:18:53;;;;;;;5.43;1.67;;;31.30;52.50;;;;;;5048797;28;20602;-69
2023/01/24 06:21:21;;;;;;;3.95;1.75;;;31.30;52.40;;;;;;5048112;28;20179;-70
2023/01/24 06:23:48;;;;;;;3.88;1.85;;;31.00;53.00;;;;;;5050354;28;20237;-69
2023/01/24 06:26:16;;;;;;;3.85;1.58;;;31.10;54.10;;;;;;5050903;28;20215;-69
2023/01/24 06:28:44;;;;;;;5.97;2.33;;;31.10;53.20;;;;;;5050958;28;20655;-71
2023/01/24 06:31:20;;;;;;;4.82;1.83;;;30.80;52.60;;;;;;5050403;28;20172;-70
2023/01/24 06:33:57;;;;;;;4.65;1.80;;;31.30;52.20;;;;;;5049478;28;20179;-70
2023/01/24 06:36:56;;;;;;;3.97;2.30;;;31.10;53.40;;;;;;5051060;28;20184;-72
2023/01/24 06:39:24;;;;;;;7.30;2.38;;;30.70;53.80;;;;;;5050908;28;20168;-68
2023/01/24 06:41:51;;;;;;;5.13;2.22;;;31.20;52.80;;;;;;5052323;28;20176;-71
2023/01/24 06:44:19;;;;;;;4.22;3.33;;;31.60;52.00;;;;;;5048983;28;20221;-72
2023/01/24 06:46:46;;;;;;;4.30;3.20;;;31.70;50.70;;;;;;5066067;28;20691;-72
2023/01/24 06:49:14;;;;;;;3.85;2.50;;;31.80;50.80;;;;;;5045773;28;20187;-71
2023/01/24 06:51:41;;;;;;;4.20;2.60;;;32.10;49.10;;;;;;5049985;28;20219;-72
2023/01/24 06:54:09;;;;;;;9.23;2.83;;;31.30;50.70;;;;;;5051102;28;20184;-71
2023/01/24 06:56:36;;;;;;;7.43;2.08;;;31.30;51.30;;;;;;5052240;28;20669;-69
2023/01/24 06:59:04;;;;;;;3.70;1.75;;;31.80;50.40;;;;;;5046568;28;20206;-68
2023/01/24 07:01:31;;;;;;;2.92;1.38;;;31.30;52.40;;;;;;5050255;28;20692;-69
2023/01/24 07:03:58;;;;;;;3.63;1.30;;;30.40;53.50;;;;;;5051818;28;20191;-70
2023/01/24 07:06:26;;;;;;;3.22;1.40;;;30.50;54.20;;;;;;5051696;28;20215;-68
2023/01/24 07:08:54;;;;;;;3.25;1.10;;;30.30;55.00;;;;;;5054317;28;20219;-68
2023/01/24 07:11:23;;;;;;;4.10;1.20;;;30.60;54.80;;;;;;5054445;28;20187;-71
2023/01/24 07:13:50;;;;;;;4.15;1.33;;;30.70;54.10;;;;;;5053702;28;20208;-73
2023/01/24 07:16:17;;;;;;;3.33;1.33;;;30.60;54.60;;;;;;5053509;28;20760;-71
2023/01/24 07:18:45;;;;;;;1.75;1.02;;;30.20;56.00;;;;;;5054355;28;20203;-73
2023/01/24 07:21:13;;;;;;;3.17;1.25;;;30.10;56.40;;;;;;5054518;28;20187;-71
2023/01/24 07:23:45;;;;;;;5.18;1.60;;;30.00;57.30;;;;;;5053616;28;20269;-69
2023/01/24 07:26:13;;;;;;;2.38;1.20;;;30.00;57.20;;;;;;5054052;28;20692;-72
2023/01/24 07:28:42;;;;;;;6.82;2.13;;;29.80;57.50;;;;;;5051986;28;20274;-70
2023/01/24 07:31:12;;;;;;;6.20;1.60;;;30.20;56.40;;;;;;5050571;28;20259;-70
2023/01/24 07:33:40;;;;;;;3.35;0.90;;;30.00;56.90;;;;;;5053008;28;20172;-73
2023/01/24 07:36:15;;;;;;;2.05;1.25;;;29.50;58.00;;;;;;5052970;28;20279;-72
2023/01/24 07:38:42;;;;;;;4.50;1.60;;;29.00;59.50;;;;;;5052790;28;20189;-73
2023/01/24 07:41:10;;;;;;;3.27;1.27;;;28.60;61.70;;;;;;5053907;28;20184;-70
2023/01/24 07:43:38;;;;;;;4.40;1.83;;;28.10;63.30;;;;;;5053930;28;20191;-70
2023/01/24 07:46:05;;;;;;;3.87;1.70;;;27.90;64.00;;;;;;5050474;28;20310;-69
2023/01/24 07:48:33;;;;;;;2.37;1.43;;;28.20;63.50;;;;;;5053346;28;20678;-71
2023/01/24 07:51:01;;;;;;;3.33;1.70;;;28.00;64.50;;;;;;5053318;28;20627;-71
2023/01/24 07:53:28;;;;;;;5.60;1.83;;;27.40;65.50;;;;;;5052604;28;20284;-71
2023/01/24 07:55:58;;;;;;;4.23;2.77;;;27.30;66.70;;;;;;5052369;28;20225;-71
2023/01/24 07:58:26;;;;;;;5.57;2.20;;;26.80;68.10;;;;;;5053795;28;20184;-71
2023/01/24 08:00:53;;;;;;;3.67;1.40;;;26.40;69.80;;;;;;5053043;28;20187;-71
2023/01/24 08:03:21;;;;;;;4.00;1.27;;;26.30;70.60;;;;;;5053504;28;20602;-72
2023/01/24 08:05:48;;;;;;;4.80;1.63;;;26.10;70.90;;;;;;5052799;28;20227;-75
2023/01/24 08:08:15;;;;;;;6.60;1.47;;;25.90;72.00;;;;;;5052060;28;20183;-72
2023/01/24 08:10:43;;;;;;;6.20;1.60;;;25.80;72.90;;;;;;5053512;28;20195;-72
2023/01/24 08:13:10;;;;;;;5.63;2.03;;;25.80;73.80;;;;;;5053142;28;20655;-71
2023/01/24 08:15:37;;;;;;;4.07;1.53;;;25.80;73.50;;;;;;5052045;28;20215;-70
2023/01/24 08:18:05;;;;;;;5.63;1.67;;;25.80;73.80;;;;;;5053237;28;20180;-71
2023/01/24 08:20:32;;;;;;;9.40;2.10;;;25.80;73.60;;;;;;5057310;28;20216;-70
2023/01/24 08:23:00;;;;;;;4.20;1.43;;;25.60;73.70;;;;;;5051353;28;20674;-72
2023/01/24 08:25:30;;;;;;;7.23;1.87;;;25.30;74.70;;;;;;5047592;28;20212;-71
2023/01/24 08:27:57;;;;;;;5.53;1.50;;;25.30;75.20;;;;;;5052743;28;20267;-73
2023/01/24 08:30:24;;;;;;;6.13;1.77;;;25.20;75.80;;;;;;5049788;28;20191;-73
2023/01/24 08:33:03;;;;;;;5.93;1.80;;;25.20;76.10;;;;;;5052429;28;20607;-71
2023/01/24 08:35:31;;;;;;;7.13;1.47;;;25.10;76.60;;;;;;5048242;28;20192;-72
2023/01/24 08:37:58;;;;;;;5.43;1.43;;;25.10;76.70;;;;;;5053288;28;20190;-70
2023/01/24 08:40:26;;;;;;;2.83;1.30;;;25.00;76.80;;;;;;5052471;28;20203;-71
2023/01/24 08:42:53;;;;;;;7.73;1.77;;;25.00;76.90;;;;;;5053855;28;20182;-71
2023/01/24 08:45:21;;;;;;;3.90;1.50;;;24.90;77.40;;;;;;5056170;28;20212;-72
2023/01/24 08:47:53;;;;;;;5.07;1.80;;;24.90;77.50;;;;;;5052691;28;20715;-72
2023/01/24 08:50:21;;;;;;;6.00;1.90;;;24.80;77.90;;;;;;5050697;28;20176;-72
2023/01/24 08:52:49;;;;;;;8.03;1.80;;;24.80;78.20;;;;;;5052503;28;20235;-73
2023/01/24 08:55:16;;;;;;;5.03;1.70;;;24.80;78.30;;;;;;5052993;28;20579;-72
2023/01/24 08:57:44;;;;;;;6.00;1.80;;;24.80;78.80;;;;;;5052573;28;20191;-72
2023/01/24 09:00:12;;;;;;;5.30;1.83;;;24.80;78.60;;;;;;5052734;28;20180;-72
2023/01/24 09:02:39;;;;;;;8.47;2.30;;;24.80;78.80;;;;;;5053238;28;20278;-72
2023/01/24 09:05:08;;;;;;;6.37;1.87;;;24.80;78.80;;;;;;5050580;28;20212;-73
2023/01/24 09:07:40;;;;;;;6.43;2.00;;;24.80;78.80;;;;;;5049423;28;20176;-72
2023/01/24 09:10:08;;;;;;;7.03;2.10;;;24.80;79.60;;;;;;5051932;28;20324;-73
2023/01/24 09:12:35;;;;;;;4.90;1.83;;;24.70;80.10;;;;;;5050370;28;20577;-72
2023/01/24 09:15:04;;;;;;;7.23;1.40;;;24.60;80.70;;;;;;5051538;28;20229;-71
2023/01/24 09:17:32;;;;;;;8.60;2.17;;;24.50;80.60;;;;;;5049057;28;20642;-72
2023/01/24 09:19:59;;;;;;;6.30;1.97;;;24.40;80.70;;;;;;5050788;28;20184;-72
2023/01/24 09:22:28;;;;;;;8.20;2.23;;;24.40;80.50;;;;;;5051818;28;22128;-72
2023/01/24 09:24:55;;;;;;;5.37;1.83;;;24.50;80.30;;;;;;5051895;28;20188;-71
2023/01/24 09:27:22;;;;;;;6.17;1.90;;;24.40;80.20;;;;;;5050117;28;20320;-75
2023/01/24 09:29:50;;;;;;;9.33;1.97;;;24.40;80.10;;;;;;5052134;28;20218;-75
2023/01/24 09:32:17;;;;;;;8.33;2.00;;;24.40;80.30;;;;;;5050554;28;20208;-73
2023/01/24 09:34:48;;;;;;;7.73;2.03;;;24.50;80.60;;;;;;5053610;28;20176;-75
2023/01/24 09:37:20;;;;;;;12.43;2.10;;;24.50;80.90;;;;;;5051905;28;20638;-73
2023/01/24 09:39:47;;;;;;;8.10;2.20;;;24.50;81.00;;;;;;5052025;28;20184;-75
2023/01/24 09:42:37;;;;;;;7.23;1.87;;;24.50;81.10;;;;;;5051192;28;20230;-68
2023/01/24 09:45:23;;;;;;;6.87;2.03;;;24.40;80.90;;;;;;5049573;28;20649;-72
2023/01/24 09:47:51;;;;;;;6.17;2.13;;;24.50;80.70;;;;;;5052130;28;20201;-69
2023/01/24 09:50:30;;;;;;;6.77;1.60;;;24.50;80.40;;;;;;5049306;28;20203;-69
2023/01/24 09:52:59;;;;;;;7.03;2.13;;;24.60;80.60;;;;;;5049810;28;20232;-70
2023/01/24 09:55:34;;;;;;;10.33;2.00;;;24.70;80.60;;;;;;5081879;28;20717;-70
2023/01/24 09:58:43;;;;;;;7.43;1.97;;;24.60;80.80;;;;;;5047976;28;20183;-68
2023/01/24 10:01:15;;;;;;;6.67;1.93;;;24.60;81.20;;;;;;5026801;28;20552;-70
2023/01/24 10:03:43;;;;;;;9.90;2.10;;;24.70;81.60;;;;;;5029458;28;20211;-71
2023/01/24 10:06:18;;;;;;;9.57;2.43;;;24.80;81.80;;;;;;5040266;28;20220;-69
2023/01/24 10:09:02;;;;;;;6.67;1.60;;;24.70;81.40;;;;;;5047493;28;20225;-69
2023/01/24 10:11:52;;;;;;;6.00;1.90;;;24.70;81.90;;;;;;5050941;28;20207;-68
2023/01/24 10:14:20;;;;;;;7.70;2.00;;;24.70;82.40;;;;;;5045928;28;20291;-69
2023/01/24 10:17:11;;;;;;;9.30;2.33;;;24.70;82.60;;;;;;5050848;28;20212;-73
2023/01/24 10:19:53;;;;;;;13.77;2.50;;;24.70;84.50;;;;;;5049453;28;20194;-74
2023/01/24 10:22:50;;;;;;;12.33;3.03;;;24.60;84.80;;;;;;5064057;28;20271;-72
2023/01/24 10:25:25;;;;;;;11.37;2.47;;;24.50;85.30;;;;;;5050385;28;20251;-74
2023/01/24 10:27:57;;;;;;;13.30;3.47;;;24.30;85.60;;;;;;5048956;28;20191;-72
2023/01/24 10:30:39;;;;;;;17.87;3.00;;;24.30;86.80;;;;;;5051454;28;20533;-74
2023/01/24 10:33:18;;;;;;;14.60;3.53;;;24.10;86.70;;;;;;5048888;28;20183;-73
2023/01/24 10:35:58;;;;;;;11.90;3.73;;;24.10;88.00;;;;;;5047674;28;20175;-73
2023/01/24 10:38:27;;;;;;;13.40;4.17;;;24.00;87.90;;;;;;5047852;28;20681;-71
2023/01/24 10:40:59;;;;;;;10.77;3.40;;;23.90;88.40;;;;;;5049598;28;20187;-69
2023/01/24 10:43:29;;;;;;;9.30;2.90;;;23.80;87.70;;;;;;5049542;28;20629;-69
2023/01/24 10:46:15;;;;;;;8.70;3.07;;;23.70;87.70;;;;;;5050958;28;20219;-65
2023/01/24 10:48:51;;;;;;;9.80;4.13;;;23.50;88.40;;;;;;5049008;28;20215;-70
2023/01/24 10:51:24;;;;;;;8.60;5.10;;;23.20;88.60;;;;;;5050339;28;20253;-70
2023/01/24 10:53:55;;;;;;;10.33;5.30;;;22.40;89.60;;;;;;5047463;28;20243;-73
2023/01/24 10:56:22;;;;;;;8.17;5.43;;;22.00;90.20;;;;;;5050404;28;20593;-70
2023/01/24 10:59:25;;;;;;;8.60;5.67;;;21.70;90.90;;;;;;5050050;28;20957;-69
2023/01/24 11:01:58;;;;;;;11.30;6.10;;;21.80;91.20;;;;;;5047858;28;20208;-69
2023/01/24 11:04:31;;;;;;;8.70;5.40;;;21.50;91.00;;;;;;5050461;28;20710;-69
2023/01/24 11:07:00;;;;;;;8.40;6.00;;;21.50;91.10;;;;;;5047561;28;20601;-69
2023/01/24 11:09:34;;;;;;;7.03;6.00;;;21.50;91.20;;;;;;5053402;28;20634;-68
2023/01/24 11:12:02;;;;;;;9.07;6.70;;;21.60;91.20;;;;;;5050701;28;20225;-67
2023/01/24 11:14:36;;;;;;;7.57;5.87;;;21.60;91.30;;;;;;5050253;28;20215;-68
2023/01/24 11:17:07;;;;;;;13.20;7.20;;;21.60;91.40;;;;;;5054847;28;20174;-67
2023/01/24 11:19:41;;;;;;;9.17;6.70;;;21.60;91.50;;;;;;5051814;28;20241;-69
2023/01/24 11:22:26;;;;;;;7.00;6.30;;;21.50;91.30;;;;;;5058841;28;20222;-68
2023/01/24 11:24:59;;;;;;;8.17;7.20;;;21.50;91.30;;;;;;5050388;28;20195;-69
2023/01/24 11:27:27;;;;;;;8.13;7.17;;;21.50;91.50;;;;;;5050308;28;20195;-67
2023/01/24 11:30:19;;;;;;;8.70;7.80;;;21.60;91.60;;;;;;5052923;28;20176;-68
2023/01/24 11:32:56;;;;;;;9.87;8.00;;;21.70;91.60;;;;;;5050643;28;20241;-68
2023/01/24 11:35:35;;;;;;;9.63;8.47;;;21.70;91.70;;;;;;5050165;28;20183;-67
2023/01/24 11:38:14;;;;;;;10.73;8.93;;;21.60;91.60;;;;;;5047664;28;20198;-69
2023/01/24 11:41:03;;;;;;;11.13;9.67;;;21.60;91.70;;;;;;5050101;28;20183;-69
2023/01/24 11:43:38;;;;;;;10.00;9.17;;;21.50;91.80;;;;;;5044999;28;20270;-68
2023/01/24 11:46:21;;;;;;;10.93;9.90;;;21.50;91.80;;;;;;5050323;28;20304;-68
2023/01/24 11:48:57;;;;;;;11.43;10.23;;;21.60;92.10;;;;;;5048220;28;20180;-68
2023/01/24 11:52:02;;;;;;;11.50;10.43;;;21.40;91.80;;;;;;5051385;28;20231;-67
2023/01/24 11:54:45;;;;;;;13.07;10.87;;;21.30;91.90;;;;;;5054393;28;20542;-68
2023/01/24 11:57:32;;;;;;;10.73;9.83;;;21.30;92.00;;;;;;5052566;28;20236;-67
2023/01/24 12:00:03;;;;;;;11.87;10.63;;;21.20;91.80;;;;;;5054280;28;20274;-67
2023/01/24 12:03:04;;;;;;;14.77;8.10;;;21.10;91.90;;;;;;5053740;28;20180;-66
2023/01/24 12:05:51;;;;;;;10.50;7.20;;;20.80;91.00;;;;;;5049979;28;20269;-68
2023/01/24 12:09:00;;;;;;;16.97;6.40;;;20.80;90.90;;;;;;5051470;28;20678;-66
2023/01/24 12:11:41;;;;;;;9.10;4.80;;;20.60;90.10;;;;;;5049102;28;20214;-71
2023/01/24 12:14:45;;;;;;;12.03;5.07;;;20.40;89.30;;;;;;5053616;28;20226;-71
2023/01/24 12:17:30;;;;;;;5.47;3.87;;;20.30;87.50;;;;;;5054384;28;20168;-68
2023/01/24 12:20:16;;;;;;;6.50;4.40;;;20.30;86.30;;;;;;5054023;28;20270;-73
2023/01/24 12:22:43;;;;;;;15.37;6.47;;;20.30;87.20;;;;;;5054231;28;20198;-76
2023/01/24 12:25:28;;;;;;;12.47;6.47;;;20.50;88.20;;;;;;5053180;28;20203;-75
2023/01/24 12:27:58;;;;;;;18.47;6.70;;;20.60;88.40;;;;;;5054393;28;20634;-76
2023/01/24 12:30:34;;;;;;;7.57;5.30;;;20.50;88.50;;;;;;5053174;28;20672;-77
2023/01/24 12:33:20;;;;;;;11.23;5.87;;;20.50;88.70;;;;;;5053355;28;20188;-72
2023/01/24 12:35:52;;;;;;;10.83;6.37;;;20.50;88.60;;;;;;5054946;28;20183;-75
2023/01/24 12:38:24;;;;;;;8.30;6.23;;;20.50;89.00;;;;;;5054791;28;20188;-73
2023/01/24 12:41:04;;;;;;;8.87;4.93;;;20.50;89.10;;;;;;5057505;28;20294;-73
2023/01/24 12:43:52;;;;;;;11.17;6.07;;;20.30;88.20;;;;;;5056651;28;20633;-75
2023/01/24 12:46:29;;;;;;;7.47;5.20;;;20.30;88.70;;;;;;5052792;28;20219;-74
2023/01/24 12:49:09;;;;;;;10.83;5.80;;;20.30;89.00;;;;;;5058327;28;20185;-70
2023/01/24 12:51:45;;;;;;;9.53;6.67;;;20.30;88.60;;;;;;5053226;28;20273;-75
2023/01/24 12:54:36;;;;;;;7.87;4.53;;;20.30;88.80;;;;;;5051826;28;20210;-74
2023/01/24 12:57:25;;;;;;;13.50;5.03;;;20.20;87.90;;;;;;5054564;28;20227;-74
2023/01/24 12:59:53;;;;;;;12.03;5.43;;;20.10;87.60;;;;;;5053399;28;20187;-74
2023/01/24 13:02:23;;;;;;;12.90;5.70;;;20.20;88.30;;;;;;5051977;28;20257;-74
2023/01/24 13:05:03;;;;;;;11.07;5.10;;;20.10;88.40;;;;;;5053197;28;20538;-75
2023/01/24 13:07:48;;;;;;;9.33;5.17;;;20.00;87.60;;;;;;5043309;28;20185;-74
2023/01/24 13:10:39;;;;;;;15.97;4.83;;;20.10;88.10;;;;;;5051504;28;20192;-76
2023/01/24 13:13:14;;;;;;;12.00;5.17;;;20.00;87.70;;;;;;5051462;28;20176;-76
2023/01/24 13:16:06;;;;;;;13.30;6.27;;;19.90;88.20;;;;;;5046949;28;20246;-74
2023/01/24 13:19:10;;;;;;;13.93;6.47;;;20.00;88.80;;;;;;5050994;28;20180;-75
2023/01/24 13:21:42;;;;;;;12.40;6.60;;;20.00;89.20;;;;;;5052157;28;20276;-76
2023/01/24 13:24:30;;;;;;;10.07;6.33;;;20.00;89.50;;;;;;5048651;28;20325;-74
2023/01/24 13:27:14;;;;;;;12.17;7.43;;;20.00;89.40;;;;;;5050011;28;20578;-73
2023/01/24 13:30:09;;;;;;;9.33;7.27;;;19.90;89.60;;;;;;5051721;28;20630;-74
2023/01/24 13:32:38;;;;;;;10.90;8.40;;;19.90;89.90;;;;;;5050869;28;20184;-75
2023/01/24 13:35:25;;;;;;;10.13;8.70;;;19.90;90.10;;;;;;5050797;28;20188;-75
2023/01/24 13:37:59;;;;;;;9.03;8.23;;;19.90;90.40;;;;;;5050254;28;20230;-73
2023/01/24 13:40:30;;;;;;;10.67;9.63;;;19.90;90.60;;;;;;5049502;28;20182;-74
2023/01/24 13:42:58;;;;;;;10.53;9.63;;;19.90;90.70;;;;;;5051024;28;21495;-73
2023/01/24 13:45:25;;;;;;;10.87;9.97;;;19.90;90.70;;;;;;5050233;28;20682;-75
2023/01/24 13:47:54;;;;;;;9.90;9.00;;;19.90;90.80;;;;;;5051474;28;20569;-75
2023/01/24 13:50:26;;;;;;;9.87;8.90;;;19.90;90.90;;;;;;5051675;28;20207;-74